Time;durP1;ratioP1;P1;durP2;ratioP2;P2;SDS_P1;SDS_P2;PMS_P1;PMS_P2;Temp;Humidity;BMP_temperature;BMP_pressure;BME280_temperature;BME280_humidity;BME280_pressure;Samples;Min_cycle;Max_cycle;Signal;HPM_P1;HPM_P2
2023/07/26 00:00:43;;;;;;;13.77;4.78;;;;;;;14.08;100.00;100980.22;5064396;28;20056;-64
2023/07/26 00:03:09;;;;;;;13.65;4.90;;;;;;;14.13;100.00;100973.13;5065127;28;20075;-63
2023/07/26 00:05:34;;;;;;;15.55;5.30;;;;;;;14.07;100.00;100981.16;5065523;28;20463;-64
2023/07/26 00:07:59;;;;;;;14.52;4.97;;;;;;;14.03;100.00;100976.75;5064270;28;20040;-63
2023/07/26 00:10:25;;;;;;;13.50;4.75;;;;;;;14.02;100.00;100981.16;5066704;28;20108;-64
2023/07/26 00:12:50;;;;;;;12.95;4.85;;;;;;;13.97;100.00;100977.66;5061703;28;20040;-63
2023/07/26 00:15:16;;;;;;;14.52;4.85;;;;;;;14.04;100.00;100976.72;5066127;28;20056;-63
2023/07/26 00:17:41;;;;;;;13.27;4.80;;;;;;;14.12;100.00;100976.66;5064229;28;20062;-63
2023/07/26 00:20:07;;;;;;;14.77;5.35;;;;;;;14.05;100.00;100974.94;5064878;28;20025;-63
2023/07/26 00:22:33;;;;;;;15.45;5.20;;;;;;;14.03;100.00;100971.44;5065458;28;20529;-63
2023/07/26 00:25:00;;;;;;;16.17;5.28;;;;;;;13.98;100.00;100975.88;5063319;28;20025;-63
2023/07/26 00:27:26;;;;;;;15.73;5.65;;;;;;;14.02;100.00;100974.97;5066255;28;20037;-63
2023/07/26 00:29:51;;;;;;;15.02;5.82;;;;;;;13.93;100.00;100970.59;5063317;28;20440;-63
2023/07/26 00:32:16;;;;;;;14.88;5.35;;;;;;;13.85;100.00;100977.75;5065633;28;20123;-64
2023/07/26 00:34:42;;;;;;;14.88;5.47;;;;;;;13.79;100.00;100973.38;5062732;28;20021;-64
2023/07/26 00:37:07;;;;;;;15.30;5.75;;;;;;;13.71;100.00;100960.13;5064243;28;20116;-63
2023/07/26 00:39:32;;;;;;;16.73;5.63;;;;;;;13.73;100.00;100974.31;5064780;28;20039;-63
2023/07/26 00:41:58;;;;;;;16.00;5.43;;;;;;;13.70;100.00;100973.41;5062774;28;20052;-64
2023/07/26 00:44:23;;;;;;;15.32;5.53;;;;;;;13.65;100.00;100980.56;5065963;28;20369;-64
2023/07/26 00:46:49;;;;;;;17.30;6.00;;;;;;;13.58;100.00;100977.91;5062766;28;20120;-63
2023/07/26 00:49:15;;;;;;;16.15;5.78;;;;;;;13.53;100.00;100974.41;5065637;28;20030;-63
2023/07/26 00:51:41;;;;;;;15.90;5.60;;;;;;;13.59;100.00;100977.03;5063734;28;20029;-63
2023/07/26 00:54:08;;;;;;;16.25;5.85;;;;;;;13.56;100.00;100971.75;5063863;28;20029;-63
2023/07/26 00:56:34;;;;;;;16.35;5.45;;;;;;;13.54;100.00;100967.31;5064672;28;20056;-63
2023/07/26 00:59:00;;;;;;;15.75;5.80;;;;;;;13.56;100.00;100961.13;5062838;28;20483;-63
2023/07/26 01:01:26;;;;;;;16.13;5.90;;;;;;;13.64;100.00;100971.69;5065403;28;20033;-63
2023/07/26 01:03:52;;;;;;;17.10;6.00;;;;;;;13.75;100.00;100968.97;5062352;28;20032;-63
2023/07/26 01:06:45;;;;;;;17.83;5.93;;;;;;;13.78;100.00;100971.59;5065347;28;20033;-64
2023/07/26 01:09:20;;;;;;;15.07;6.05;;;;;;;13.62;100.00;100969.97;5062750;28;20033;-63
2023/07/26 01:12:04;;;;;;;17.17;6.07;;;;;;;13.46;100.00;100975.34;5062683;28;20029;-63
2023/07/26 01:14:35;;;;;;;17.15;6.18;;;;;;;13.29;100.00;100972.72;5059512;28;20083;-63
2023/07/26 01:17:00;;;;;;;17.85;6.53;;;;;;;13.31;100.00;100981.59;5064541;28;20108;-63
2023/07/26 01:19:26;;;;;;;17.77;6.47;;;;;;;13.13;100.00;100974.56;5061975;28;20535;-63
2023/07/26 01:21:51;;;;;;;17.45;6.20;;;;;;;13.07;100.00;100978.13;5065369;28;20502;-63
2023/07/26 01:24:16;;;;;;;17.48;6.47;;;;;;;12.96;100.00;100973.75;5062213;28;20021;-62
2023/07/26 01:26:42;;;;;;;17.67;6.47;;;;;;;12.85;100.00;100972.03;5064193;28;20442;-63
2023/07/26 01:29:07;;;;;;;17.40;6.35;;;;;;;12.82;100.00;100979.13;5063464;28;20123;-65
2023/07/26 01:31:33;;;;;;;16.75;6.50;;;;;;;12.75;100.00;100980.88;5062712;28;20029;-63
2023/07/26 01:34:01;;;;;;;17.38;6.65;;;;;;;12.70;100.00;100977.38;5064677;28;20426;-64
2023/07/26 01:36:29;;;;;;;18.38;6.65;;;;;;;12.64;100.00;100972.97;5061434;28;20383;-62
2023/07/26 01:38:56;;;;;;;16.75;6.50;;;;;;;12.65;100.00;100979.16;5065135;28;20483;-77
2023/07/26 01:41:22;;;;;;;17.08;6.30;;;;;;;12.68;100.00;100971.19;5057578;28;20025;-72
2023/07/26 01:43:48;;;;;;;18.02;6.70;;;;;;;12.75;100.00;100972.94;5064370;28;20063;-73
2023/07/26 01:46:13;;;;;;;18.38;6.50;;;;;;;12.84;100.00;100979.97;5062625;28;20515;-72
2023/07/26 01:48:40;;;;;;;17.23;6.53;;;;;;;12.90;100.00;100978.22;5062996;28;20116;-72
2023/07/26 01:51:05;;;;;;;16.88;6.32;;;;;;;12.93;100.00;100974.66;5063471;28;20104;-70
2023/07/26 01:53:31;;;;;;;17.60;6.32;;;;;;;12.94;100.00;100972.88;5062108;28;20033;-70
2023/07/26 01:55:56;;;;;;;16.98;6.47;;;;;;;12.89;100.00;100968.47;5064543;28;20024;-73
2023/07/26 01:58:22;;;;;;;18.00;6.63;;;;;;;12.85;100.00;100977.31;5061151;28;20040;-70
2023/07/26 02:00:47;;;;;;;18.35;6.70;;;;;;;12.84;100.00;100964.06;5064136;28;20024;-70
2023/07/26 02:03:13;;;;;;;17.20;6.57;;;;;;;12.77;100.00;100968.53;5062065;28;20044;-72
2023/07/26 02:05:45;;;;;;;18.63;6.70;;;;;;;12.71;100.00;100972.06;5062698;28;20025;-75
2023/07/26 02:08:11;;;;;;;17.73;6.53;;;;;;;12.67;100.00;100967.66;5062701;28;20028;-72
2023/07/26 02:10:39;;;;;;;18.02;6.90;;;;;;;12.58;100.00;100977.41;5062531;28;20032;-77
2023/07/26 02:13:04;;;;;;;17.83;6.90;;;;;;;12.63;100.00;100973.84;5063306;28;20450;-76
2023/07/26 02:15:29;;;;;;;19.27;6.95;;;;;;;12.62;100.00;100969.41;5061577;28;20036;-72
2023/07/26 02:17:55;;;;;;;19.92;7.18;;;;;;;12.70;100.00;100970.28;5064216;28;20044;-69
2023/07/26 02:20:20;;;;;;;17.77;7.10;;;;;;;12.77;100.00;100970.28;5061137;28;20029;-73
2023/07/26 02:22:45;;;;;;;17.50;6.80;;;;;;;12.86;100.00;100979.09;5063744;28;20029;-77
2023/07/26 02:25:11;;;;;;;18.17;6.70;;;;;;;12.87;100.00;100962.31;5062243;28;20085;-71
2023/07/26 02:27:36;;;;;;;16.60;6.38;;;;;;;12.81;100.00;100969.38;5062237;28;20095;-72
2023/07/26 02:30:02;;;;;;;17.17;6.60;;;;;;;12.67;100.00;100962.34;5063647;28;20027;-70
2023/07/26 02:32:29;;;;;;;17.50;6.43;;;;;;;12.62;100.00;100963.25;5060924;28;20104;-74
2023/07/26 02:34:54;;;;;;;17.70;6.40;;;;;;;12.60;100.00;100960.59;5064264;28;20020;-70
2023/07/26 02:37:20;;;;;;;18.33;6.40;;;;;;;12.55;100.00;100967.66;5060976;28;20563;-73
2023/07/26 02:39:45;;;;;;;17.30;6.53;;;;;;;12.51;100.00;100968.59;5063237;28;20028;-72
2023/07/26 02:42:10;;;;;;;16.92;6.05;;;;;;;12.50;100.00;100958.84;5062282;28;20064;-64
2023/07/26 02:44:36;;;;;;;18.02;5.97;;;;;;;12.54;100.00;100965.91;5062091;28;20460;-63
2023/07/26 02:47:02;;;;;;;15.90;6.00;;;;;;;12.49;100.00;100957.94;5063462;28;20033;-64
2023/07/26 02:49:27;;;;;;;16.75;6.45;;;;;;;12.53;100.00;100959.72;5060756;28;20075;-63
2023/07/26 02:51:52;;;;;;;17.50;6.55;;;;;;;12.52;100.00;100960.63;5064099;28;20071;-63
2023/07/26 02:54:18;;;;;;;17.75;6.63;;;;;;;12.53;100.00;100967.66;5061124;28;20021;-64
2023/07/26 02:56:43;;;;;;;18.00;6.65;;;;;;;12.52;100.00;100980.94;5062950;28;20029;-63
2023/07/26 02:59:08;;;;;;;18.50;6.93;;;;;;;12.49;100.00;100979.16;5061045;28;20043;-65
2023/07/26 03:01:34;;;;;;;17.98;6.53;;;;;;;12.52;100.00;100983.59;5061367;28;20021;-63
2023/07/26 03:03:59;;;;;;;19.95;6.70;;;;;;;12.58;100.00;100985.34;5065316;28;20495;-62
2023/07/26 03:06:26;;;;;;;18.85;6.65;;;;;;;12.56;100.00;100991.53;5064485;28;20033;-62
2023/07/26 03:08:52;;;;;;;18.13;7.00;;;;;;;12.57;100.00;100984.47;5067676;28;20502;-63
2023/07/26 03:11:17;;;;;;;17.58;6.80;;;;;;;12.65;100.00;100990.63;5065179;28;20056;-63
2023/07/26 03:13:43;;;;;;;17.08;6.30;;;;;;;12.69;100.00;100981.78;5066438;28;20056;-63
2023/07/26 03:16:08;;;;;;;17.35;6.45;;;;;;;12.65;100.00;100995.94;5066102;28;20356;-63
2023/07/26 03:18:33;;;;;;;17.23;6.60;;;;;;;12.65;100.00;100985.31;5065170;28;20029;-63
2023/07/26 03:20:59;;;;;;;18.73;7.20;;;;;;;12.47;100.00;100986.25;5067368;28;20040;-63
2023/07/26 03:23:24;;;;;;;19.13;7.53;;;;;;;12.27;100.00;100977.44;5064348;28;20029;-65
2023/07/26 03:25:49;;;;;;;19.98;7.97;;;;;;;11.99;100.00;100980.09;5067167;28;20067;-64
2023/07/26 03:28:15;;;;;;;19.42;7.47;;;;;;;11.82;100.00;100991.53;5064945;28;20471;-65
2023/07/26 03:30:40;;;;;;;18.73;7.82;;;;;;;11.75;100.00;100984.44;5065916;28;20029;-63
2023/07/26 03:33:08;;;;;;;18.65;7.63;;;;;;;11.72;100.00;100988.84;5066215;28;20024;-63
2023/07/26 03:35:33;;;;;;;18.98;7.43;;;;;;;11.70;100.00;100991.47;5064925;28;20476;-63
2023/07/26 03:37:58;;;;;;;18.75;7.47;;;;;;;11.67;100.00;100996.78;5067458;28;20090;-64
2023/07/26 03:40:24;;;;;;;18.98;7.38;;;;;;;11.60;100.00;100995.88;5063651;28;20032;-64
2023/07/26 03:42:49;;;;;;;19.10;7.63;;;;;;;11.52;100.00;100995.84;5066992;28;20511;-63
2023/07/26 03:45:15;;;;;;;17.90;7.30;;;;;;;11.48;100.00;101001.13;5064942;28;20032;-74
2023/07/26 03:47:40;;;;;;;18.10;7.05;;;;;;;11.44;100.00;101002.88;5065271;28;20033;-63
2023/07/26 03:50:06;;;;;;;19.25;7.50;;;;;;;11.42;100.00;100996.72;5065965;28;20159;-71
2023/07/26 03:52:31;;;;;;;18.10;7.00;;;;;;;11.40;100.00;100992.28;5064264;28;20131;-73
2023/07/26 03:54:57;;;;;;;18.38;6.70;;;;;;;11.31;100.00;100985.19;5067051;28;20429;-63
2023/07/26 03:57:22;;;;;;;18.23;6.80;;;;;;;11.30;100.00;100986.97;5063499;28;20099;-64
2023/07/26 03:59:48;;;;;;;17.80;6.80;;;;;;;11.28;100.00;100991.34;5066273;28;20040;-64
2023/07/26 04:02:13;;;;;;;17.73;6.03;;;;;;;11.31;100.00;100995.78;5064576;28;20079;-67
2023/07/26 04:04:38;;;;;;;16.70;6.10;;;;;;;11.40;100.00;100990.53;5065023;28;20111;-63
2023/07/26 04:07:04;;;;;;;16.58;6.00;;;;;;;11.39;100.00;100986.13;5065878;28;20040;-64
2023/07/26 04:09:29;;;;;;;16.45;5.75;;;;;;;11.35;100.00;100989.63;5063785;28;20119;-63
2023/07/26 04:11:58;;;;;;;16.38;6.10;;;;;;;11.43;100.00;100989.63;5066826;28;20414;-63
2023/07/26 04:14:23;;;;;;;16.02;5.93;;;;;;;11.41;100.00;100989.63;5058833;28;20024;-64
2023/07/26 04:16:50;;;;;;;16.00;5.45;;;;;;;11.33;100.00;100989.63;5065007;28;20474;-63
2023/07/26 04:19:16;;;;;;;17.08;5.82;;;;;;;11.33;100.00;100986.09;5064158;28;20024;-64
2023/07/26 04:21:41;;;;;;;16.08;5.53;;;;;;;11.31;100.00;100990.47;5064907;28;20464;-64
2023/07/26 04:24:06;;;;;;;16.15;5.60;;;;;;;11.25;100.00;100993.13;5065080;28;20031;-65
2023/07/26 04:26:32;;;;;;;17.23;6.00;;;;;;;11.27;100.00;100991.34;5063648;28;20031;-63
2023/07/26 04:28:58;;;;;;;17.23;6.10;;;;;;;11.27;100.00;100994.00;5066391;28;20041;-64
2023/07/26 04:31:24;;;;;;;18.20;6.28;;;;;;;11.25;100.00;100988.69;5058847;28;20465;-63
2023/07/26 04:33:49;;;;;;;18.42;6.57;;;;;;;11.23;100.00;100989.59;5064679;28;20044;-64
2023/07/26 04:36:14;;;;;;;18.80;7.30;;;;;;;11.27;100.00;100988.69;5063791;28;20024;-67
2023/07/26 04:38:40;;;;;;;19.30;7.82;;;;;;;11.29;100.00;100987.84;5064246;28;20461;-63
2023/07/26 04:41:05;;;;;;;18.60;7.50;;;;;;;11.34;100.00;100988.75;5065483;28;20126;-63
2023/07/26 04:43:31;;;;;;;18.40;7.90;;;;;;;11.41;100.00;101000.22;5062892;28;20033;-63
2023/07/26 04:45:56;;;;;;;19.30;8.40;;;;;;;11.46;100.00;100998.50;5066307;28;20471;-63
2023/07/26 04:48:22;;;;;;;19.15;8.50;;;;;;;11.50;100.00;101000.28;5063071;28;20025;-63
2023/07/26 04:50:48;;;;;;;19.20;8.48;;;;;;;11.60;100.00;101000.28;5065098;28;20104;-63
2023/07/26 04:53:14;;;;;;;19.83;8.80;;;;;;;11.63;100.00;100992.34;5063900;28;20025;-66
2023/07/26 04:55:43;;;;;;;20.70;9.10;;;;;;;11.68;100.00;100995.91;5064139;28;20037;-72
2023/07/26 04:58:09;;;;;;;21.15;9.20;;;;;;;11.72;100.00;100995.00;5064143;28;20122;-63
2023/07/26 05:00:38;;;;;;;20.35;9.30;;;;;;;11.78;100.00;100992.38;5063338;28;20041;-63
2023/07/26 05:03:03;;;;;;;20.10;9.07;;;;;;;11.79;100.00;101002.09;5064946;28;20075;-63
2023/07/26 05:05:28;;;;;;;20.50;9.40;;;;;;;11.85;100.00;101001.22;5062522;28;20037;-63
2023/07/26 05:07:54;;;;;;;19.92;9.40;;;;;;;11.88;100.00;101001.22;5065600;28;20099;-63
2023/07/26 05:10:19;;;;;;;20.40;9.45;;;;;;;11.91;100.00;100992.41;5062645;28;20040;-63
2023/07/26 05:12:45;;;;;;;21.33;10.02;;;;;;;11.95;100.00;100997.72;5064109;28;20031;-64
2023/07/26 05:15:10;;;;;;;20.63;9.75;;;;;;;12.00;100.00;100992.47;5063870;28;20029;-63
2023/07/26 05:17:36;;;;;;;20.08;9.15;;;;;;;12.07;100.00;100990.69;5062909;28;20521;-63
2023/07/26 05:20:01;;;;;;;20.35;9.60;;;;;;;12.12;100.00;100995.09;5064888;28;20025;-63
2023/07/26 05:22:27;;;;;;;20.27;9.30;;;;;;;12.16;100.00;101003.94;5062185;28;20036;-63
2023/07/26 05:24:52;;;;;;;20.00;9.93;;;;;;;12.23;100.00;101007.47;5065035;28;20074;-63
2023/07/26 05:27:18;;;;;;;21.35;10.35;;;;;;;12.27;100.00;100996.84;5062076;28;20393;-63
2023/07/26 05:29:43;;;;;;;20.40;9.70;;;;;;;12.35;100.00;100999.53;5062919;28;20078;-63
2023/07/26 05:32:08;;;;;;;21.00;9.55;;;;;;;12.43;100.00;100996.88;5063645;28;20024;-63
2023/07/26 05:34:35;;;;;;;20.20;9.65;;;;;;;12.49;100.00;100995.06;5062274;28;20029;-64
2023/07/26 05:37:01;;;;;;;20.52;9.52;;;;;;;12.59;100.00;101000.38;5064824;28;20029;-65
2023/07/26 05:39:27;;;;;;;20.77;9.48;;;;;;;12.70;100.00;100995.94;5061386;28;20078;-64
2023/07/26 05:41:52;;;;;;;21.35;10.00;;;;;;;12.80;100.00;100991.47;5064661;28;20024;-64
2023/07/26 05:44:17;;;;;;;21.60;10.07;;;;;;;12.88;100.00;100993.22;5062414;28;20029;-64
2023/07/26 05:46:43;;;;;;;22.23;9.82;;;;;;;12.97;100.00;100997.63;5063312;28;20083;-72
2023/07/26 05:49:09;;;;;;;20.80;9.70;;;;;;;13.04;100.00;100999.38;5060468;28;20035;-77
2023/07/26 05:51:35;;;;;;;21.13;10.13;;;;;;;13.06;100.00;101002.03;5065153;28;20033;-67
2023/07/26 05:54:00;;;;;;;21.02;9.77;;;;;;;13.07;100.00;100998.47;5061595;28;20035;-70
2023/07/26 05:56:25;;;;;;;20.80;9.68;;;;;;;13.08;100.00;101002.91;5063391;28;20033;-71
2023/07/26 05:58:51;;;;;;;21.40;9.98;;;;;;;13.11;100.00;101004.69;5062769;28;20025;-71
2023/07/26 06:01:16;;;;;;;20.58;10.20;;;;;;;13.18;100.00;101006.44;5061821;28;20095;-71
2023/07/26 06:03:43;;;;;;;22.00;10.57;;;;;;;13.30;100.00;101002.84;5064161;28;20128;-74
2023/07/26 06:06:08;;;;;;;21.77;11.10;;;;;;;13.44;100.00;101006.34;5060987;28;20059;-69
2023/07/26 06:08:34;;;;;;;21.77;10.68;;;;;;;13.69;100.00;101008.84;5064456;28;20373;-69
2023/07/26 06:10:59;;;;;;;21.70;10.55;;;;;;;13.95;100.00;101016.69;5060307;28;20056;-73
2023/07/26 06:13:24;;;;;;;21.35;10.57;;;;;;;14.17;100.00;101022.72;5063661;28;20527;-70
2023/07/26 06:15:50;;;;;;;22.35;10.70;;;;;;;14.31;100.00;101025.25;5062259;28;20063;-70
2023/07/26 06:18:15;;;;;;;22.10;10.27;;;;;;;14.38;100.00;101026.09;5062552;28;20036;-69
2023/07/26 06:20:40;;;;;;;22.15;10.57;;;;;;;14.34;100.00;101029.66;5063463;28;20032;-66
2023/07/26 06:23:07;;;;;;;22.25;11.00;;;;;;;14.41;100.00;101031.38;5060706;28;20055;-75
2023/07/26 06:25:32;;;;;;;22.95;11.13;;;;;;;14.43;100.00;101040.22;5057525;28;20020;-75
2023/07/26 06:27:58;;;;;;;22.75;11.15;;;;;;;14.36;100.00;101039.41;5064148;28;20024;-74
2023/07/26 06:30:23;;;;;;;22.02;11.27;;;;;;;14.26;100.00;101041.25;5061246;28;20067;-74
2023/07/26 06:32:49;;;;;;;23.50;11.82;;;;;;;14.22;100.00;101054.56;5063926;28;20021;-75
2023/07/26 06:35:15;;;;;;;24.17;11.80;;;;;;;14.19;100.00;101065.22;5061421;28;20032;-76
2023/07/26 06:37:40;;;;;;;24.08;12.30;;;;;;;14.12;100.00;101065.28;5066577;28;20062;-71
2023/07/26 06:40:06;;;;;;;23.65;12.60;;;;;;;13.98;100.00;101066.25;5065409;28;20542;-64
2023/07/26 06:42:32;;;;;;;24.70;13.07;;;;;;;13.81;100.00;101059.25;5066466;28;20033;-75
2023/07/26 06:44:58;;;;;;;23.42;13.45;;;;;;;13.58;100.00;101060.25;5067475;28;20024;-65
2023/07/26 06:47:23;;;;;;;25.45;14.18;;;;;;;13.41;100.00;101068.31;5065509;28;20025;-71
2023/07/26 06:49:49;;;;;;;26.35;13.90;;;;;;;13.20;100.00;101066.56;5059717;28;20379;-72
2023/07/26 06:52:16;;;;;;;26.73;14.60;;;;;;;13.07;100.00;101076.31;5068240;28;20083;-69
2023/07/26 06:54:41;;;;;;;27.05;15.45;;;;;;;13.02;100.00;101070.16;5060546;28;20399;-65
2023/07/26 06:57:06;;;;;;;26.70;15.20;;;;;;;12.99;100.00;101079.88;5067347;28;20033;-73
2023/07/26 06:59:32;;;;;;;26.95;16.52;;;;;;;12.98;100.00;101086.09;5065673;28;20024;-74
2023/07/26 07:01:57;;;;;;;29.13;17.08;;;;;;;12.94;100.00;101073.72;5065618;28;20045;-73
2023/07/26 07:04:23;;;;;;;29.92;17.67;;;;;;;12.94;100.00;101079.03;5066708;28;20079;-73
2023/07/26 07:06:48;;;;;;;32.25;18.65;;;;;;;12.85;100.00;101072.84;5065010;28;20025;-70
2023/07/26 07:09:14;;;;;;;30.73;19.60;;;;;;;12.87;100.00;101083.44;5067062;28;20029;-75
2023/07/26 07:11:39;;;;;;;29.30;18.75;;;;;;;12.86;100.00;101087.00;5067664;28;20031;-70
2023/07/26 07:14:05;;;;;;;30.15;18.65;;;;;;;12.82;100.00;101093.19;5064053;28;20037;-66
2023/07/26 07:16:30;;;;;;;30.30;19.48;;;;;;;12.89;100.00;101111.75;5058237;28;20033;-77
2023/07/26 07:18:55;;;;;;;32.03;19.77;;;;;;;12.88;100.00;101117.94;5059627;28;20029;-74
2023/07/26 07:21:21;;;;;;;30.63;19.63;;;;;;;12.87;100.00;101124.13;5063198;28;20032;-71
2023/07/26 07:23:47;;;;;;;33.85;21.20;;;;;;;13.03;100.00;101129.41;5064258;28;20135;-70
2023/07/26 07:26:13;;;;;;;32.45;20.77;;;;;;;13.16;100.00;101130.28;5063959;28;20029;-74
2023/07/26 07:28:38;;;;;;;33.67;19.63;;;;;;;13.25;100.00;101141.78;5067280;28;20529;-69
2023/07/26 07:31:03;;;;;;;33.63;21.67;;;;;;;13.47;100.00;101140.84;5063820;28;20025;-71
2023/07/26 07:33:30;;;;;;;31.60;20.92;;;;;;;13.63;100.00;101134.63;5066862;28;20071;-73
2023/07/26 07:35:55;;;;;;;32.83;21.27;;;;;;;13.61;100.00;101139.03;5064824;28;20078;-81
2023/07/26 07:38:20;;;;;;;30.77;19.80;;;;;;;13.49;100.00;101137.31;5059211;28;20064;-79
2023/07/26 07:40:47;;;;;;;33.67;20.90;;;;;;;13.54;100.00;101143.50;5065100;28;20029;-71
2023/07/26 07:43:12;;;;;;;29.95;19.10;;;;;;;13.33;100.00;101144.41;5059493;28;20021;-77
2023/07/26 07:45:39;;;;;;;29.63;18.73;;;;;;;13.29;100.00;101142.63;5066322;28;20028;-77
2023/07/26 07:48:05;;;;;;;29.55;19.42;;;;;;;13.27;100.00;101138.25;5064638;28;20054;-77
2023/07/26 07:50:31;;;;;;;30.80;19.38;;;;;;;13.37;100.00;101145.34;5064909;28;20040;-77
2023/07/26 07:52:56;;;;;;;31.90;20.40;;;;;;;13.53;100.00;101143.53;5065825;28;20029;-76
2023/07/26 07:55:21;;;;;;;32.08;20.20;;;;;;;13.61;100.00;101133.72;5064004;28;20036;-76
2023/07/26 07:57:47;;;;;;;30.65;19.80;;;;;;;13.67;100.00;101140.81;5066639;28;20029;-72
2023/07/26 08:00:12;;;;;;;29.98;19.23;;;;;;;13.76;100.00;101140.75;5062322;28;20025;-66
2023/07/26 08:02:38;;;;;;;31.63;19.42;;;;;;;13.85;100.00;101137.16;5065788;28;20045;-66
2023/07/26 08:05:03;;;;;;;31.25;20.35;;;;;;;13.91;100.00;101138.03;5059952;28;20028;-65
2023/07/26 08:07:29;;;;;;;29.40;18.52;;;;;;;13.79;100.00;101138.09;5057973;28;20064;-76
2023/07/26 08:09:54;;;;;;;29.23;19.45;;;;;;;13.97;100.00;101137.13;5059756;28;20523;-76
2023/07/26 08:12:20;;;;;;;28.63;18.75;;;;;;;13.91;100.00;101138.03;5063596;28;20099;-81
2023/07/26 08:14:51;;;;;;;28.42;18.08;;;;;;;14.05;100.00;101132.66;5066488;28;20056;-77
2023/07/26 08:17:17;;;;;;;26.92;17.88;;;;;;;14.10;100.00;101128.19;5063257;28;20538;-76
2023/07/26 08:19:42;;;;;;;28.75;17.70;;;;;;;14.13;100.00;101129.97;5066463;28;20033;-73
2023/07/26 08:22:08;;;;;;;26.95;17.40;;;;;;;14.32;100.00;101137.81;5063139;28;20495;-71
2023/07/26 08:24:33;;;;;;;27.27;15.65;;;;;;;14.39;100.00;101123.59;5065812;28;20119;-68
2023/07/26 08:26:59;;;;;;;25.83;15.98;;;;;;;14.60;100.00;101131.41;5064093;28;20063;-71
2023/07/26 08:29:24;;;;;;;25.65;15.38;;;;;;;14.91;100.00;101125.88;5064212;28;20384;-70
2023/07/26 08:31:49;;;;;;;24.73;14.65;;;;;;;15.03;100.00;101121.31;5065487;28;20043;-68
2023/07/26 08:34:15;;;;;;;24.58;13.45;;;;;;;15.08;100.00;101115.03;5063002;28;20057;-69
2023/07/26 08:36:40;;;;;;;24.88;14.07;;;;;;;15.23;100.00;101108.69;5066119;28;20043;-69
2023/07/26 08:39:06;;;;;;;23.92;13.57;;;;;;;15.55;100.00;101107.41;5062860;28;20033;-69
2023/07/26 08:41:31;;;;;;;22.55;12.32;;;;;;;15.87;100.00;101106.16;5064665;28;20029;-74
2023/07/26 08:43:59;;;;;;;22.90;12.27;;;;;;;16.00;100.00;101099.78;5064406;28;20033;-71
2023/07/26 08:46:27;;;;;;;23.63;13.00;;;;;;;16.34;100.00;101112.63;5062627;28;20033;-76
2023/07/26 08:48:53;;;;;;;22.17;11.50;;;;;;;16.82;100.00;101113.59;5064907;28;20074;-74
2023/07/26 08:51:20;;;;;;;21.77;11.40;;;;;;;17.25;100.00;101111.06;5064193;28;20040;-72
2023/07/26 08:53:48;;;;;;;21.23;11.65;;;;;;;17.29;100.00;101105.69;5063683;28;20053;-75
2023/07/26 08:56:15;;;;;;;21.50;11.00;;;;;;;17.41;100.00;101097.41;5064456;28;20025;-79
2023/07/26 08:58:40;;;;;;;20.35;9.15;;;;;;;17.47;100.00;101099.09;5063078;28;20037;-78
2023/07/26 09:01:06;;;;;;;21.35;9.23;;;;;;;17.53;100.00;101099.88;5064615;28;20113;-72
2023/07/26 09:03:32;;;;;;;20.60;9.70;;;;;;;17.73;100.00;101096.75;5061861;28;20079;-72
2023/07/26 09:06:05;;;;;;;21.55;9.93;;;;;;;18.21;100.00;101089.50;5065252;28;20032;-78
2023/07/26 09:08:31;;;;;;;20.10;8.98;;;;;;;18.49;100.00;101088.84;5058057;28;20025;-72
2023/07/26 09:10:56;;;;;;;20.92;8.18;;;;;;;18.83;100.00;101080.81;5064715;28;20395;-66
2023/07/26 09:13:22;;;;;;;20.25;8.00;;;;;;;19.30;100.00;101083.16;5063789;28;20044;-69
2023/07/26 09:15:49;;;;;;;19.75;8.35;;;;;;;19.14;100.00;101075.53;5064048;28;20398;-71
2023/07/26 09:18:14;;;;;;;19.30;8.50;;;;;;;18.82;100.00;101071.91;5063363;28;20047;-75
2023/07/26 09:20:40;;;;;;;19.40;8.10;;;;;;;19.06;100.00;101077.56;5063586;28;20029;-78
2023/07/26 09:23:05;;;;;;;19.10;7.60;;;;;;;19.05;100.00;101075.81;5063953;28;20016;-75
2023/07/26 09:25:34;;;;;;;20.67;7.70;;;;;;;19.00;100.00;101080.38;5062041;28;20486;-74
2023/07/26 09:28:00;;;;;;;18.92;6.60;;;;;;;19.16;100.00;101080.84;5065166;28;20114;-76
2023/07/26 09:30:26;;;;;;;17.50;5.88;;;;;;;19.32;100.00;101076.84;5061585;28;20068;-82
2023/07/26 09:32:52;;;;;;;18.45;5.80;;;;;;;19.55;100.00;101077.09;5064948;28;20111;-74
2023/07/26 09:35:17;;;;;;;18.90;6.63;;;;;;;19.63;100.00;101083.09;5062356;28;20406;-75
2023/07/26 09:37:44;;;;;;;18.27;6.32;;;;;;;19.76;100.00;101080.94;5063337;28;20032;-74
2023/07/26 09:40:10;;;;;;;17.98;6.30;;;;;;;19.95;100.00;101076.81;5063169;28;20050;-72
2023/07/26 09:42:47;;;;;;;19.88;6.70;;;;;;;19.88;100.00;101077.03;5063495;28;20078;-70
2023/07/26 09:45:19;;;;;;;16.88;5.18;;;;;;;19.38;100.00;101078.44;5061942;28;20021;-72
2023/07/26 09:47:46;;;;;;;12.35;3.80;;;;;;;19.07;90.98;101098.06;5064115;28;20025;-75
2023/07/26 09:50:32;;;;;;;9.52;3.28;;;;;;;19.24;88.12;101092.25;5062626;28;20027;-75
2023/07/26 09:52:57;;;;;;;11.15;3.40;;;;;;;19.51;87.88;101087.00;5061355;28;20044;-76
2023/07/26 09:55:26;;;;;;;8.10;2.97;;;;;;;19.88;73.49;101085.06;5062992;28;20403;-76
2023/07/26 09:57:55;;;;;;;7.10;2.80;;;;;;;20.64;65.00;101080.84;5062169;28;20432;-76
2023/07/26 10:00:26;;;;;;;7.40;2.60;;;;;;;21.37;54.75;101109.66;5063508;28;20024;-75
2023/07/26 10:02:57;;;;;;;9.73;3.20;;;;;;;21.02;59.13;101084.06;5062183;28;20100;-65
2023/07/26 10:05:25;;;;;;;8.00;3.10;;;;;;;20.99;61.44;101092.22;5063029;28;20028;-65
2023/07/26 10:07:50;;;;;;;12.60;3.90;;;;;;;20.12;66.44;101086.97;5061958;28;20020;-64
2023/07/26 10:10:17;;;;;;;13.35;4.20;;;;;;;18.97;84.24;101091.19;5060246;28;20033;-65
2023/07/26 10:12:46;;;;;;;14.00;4.45;;;;;;;18.23;100.00;101087.66;5061918;28;20372;-72
2023/07/26 10:15:15;;;;;;;14.88;4.60;;;;;;;18.41;100.00;101084.53;5063059;28;20107;-74
2023/07/26 10:17:45;;;;;;;15.15;4.50;;;;;;;19.54;95.19;101086.91;5062073;28;20040;-75
2023/07/26 10:20:11;;;;;;;15.60;4.70;;;;;;;21.09;71.81;101093.66;5063093;28;20025;-75
2023/07/26 10:22:39;;;;;;;14.60;4.40;;;;;;;22.62;67.29;101088.66;5060868;28;20102;-75
2023/07/26 10:25:05;;;;;;;15.93;4.60;;;;;;;23.07;64.35;101075.13;5063335;28;20104;-76
2023/07/26 10:27:32;;;;;;;16.15;5.32;;;;;;;23.27;63.12;101083.22;5062198;28;20029;-76
2023/07/26 10:29:57;;;;;;;16.17;5.07;;;;;;;23.86;65.49;101080.53;5062233;28;20021;-66
2023/07/26 10:32:23;;;;;;;15.88;5.00;;;;;;;24.81;59.14;101085.75;5063473;28;20071;-76
2023/07/26 10:34:59;;;;;;;15.75;5.05;;;;;;;23.70;59.93;101084.88;5061486;28;20094;-76
2023/07/26 10:37:32;;;;;;;16.60;4.88;;;;;;;24.43;56.85;101087.69;5062702;28;20024;-77
2023/07/26 10:39:58;;;;;;;17.30;5.10;;;;;;;25.04;54.31;101076.44;5062468;28;20028;-75
2023/07/26 10:42:30;;;;;;;16.55;5.40;;;;;;;24.77;57.06;101077.91;5063328;28;20064;-77
2023/07/26 10:44:59;;;;;;;15.38;4.63;;;;;;;24.60;53.28;101074.25;5062174;28;20037;-77
2023/07/26 10:47:24;;;;;;;16.25;4.85;;;;;;;23.16;61.37;101069.34;5062818;28;20081;-77
2023/07/26 10:49:53;;;;;;;16.65;4.85;;;;;;;22.00;68.05;101070.56;5061138;28;20416;-73
2023/07/26 10:52:20;;;;;;;17.23;5.10;;;;;;;22.43;68.09;101074.25;5054865;28;20476;-70
2023/07/26 10:54:50;;;;;;;17.60;5.30;;;;;;;23.33;62.24;101071.28;5052067;28;20376;-75
2023/07/26 10:57:28;;;;;;;15.68;5.10;;;;;;;24.41;60.04;101070.69;5056692;28;20119;-71
2023/07/26 10:59:56;;;;;;;16.75;5.10;;;;;;;24.13;58.56;101069.34;5057446;28;20490;-74
2023/07/26 11:02:38;;;;;;;16.60;4.90;;;;;;;25.21;56.68;101055.78;5054108;28;20052;-72
2023/07/26 11:05:05;;;;;;;;;;;;;;;26.27;52.58;101070.66;5059802;28;20437;-73